Time;durP1;ratioP1;P1;durP2;ratioP2;P2;SDS_P1;SDS_P2;PMS_P1;PMS_P2;Temp;Humidity;BMP_temperature;BMP_pressure;BME280_temperature;BME280_humidity;BME280_pressure;Samples;Min_cycle;Max_cycle;Signal;HPM_P1;HPM_P2
2023/12/09 00:00:09;;;;;;;47.42;27.65;;;10.60;99.90;;;;;;5029319;28;20028;-85
2023/12/09 00:02:35;;;;;;;48.95;32.03;;;10.30;99.90;;;;;;5028728;28;20108;-84
2023/12/09 00:05:00;;;;;;;44.47;29.55;;;10.20;99.90;;;;;;5028876;28;20026;-84
2023/12/09 00:07:26;;;;;;;35.85;26.83;;;9.70;99.90;;;;;;5029381;28;20022;-84
2023/12/09 00:09:52;;;;;;;19.13;12.20;;;10.60;99.90;;;;;;5029096;28;20032;-85
2023/12/09 00:12:17;;;;;;;19.05;12.38;;;9.30;99.90;;;;;;5028586;28;20292;-85
2023/12/09 00:14:43;;;;;;;32.65;22.65;;;10.30;99.90;;;;;;5028555;28;20052;-85
2023/12/09 00:17:08;;;;;;;38.40;26.75;;;9.50;99.90;;;;;;5028958;28;20409;-84
2023/12/09 00:19:34;;;;;;;40.38;26.85;;;10.40;99.90;;;;;;5029048;28;20033;-84
2023/12/09 00:22:00;;;;;;;31.67;20.30;;;10.80;99.90;;;;;;5028936;28;20022;-84
2023/12/09 00:24:26;;;;;;;21.75;13.77;;;10.40;99.90;;;;;;5011551;28;20138;-84
2023/12/09 00:26:51;;;;;;;19.48;15.32;;;10.80;99.90;;;;;;5028838;28;20021;-84
2023/12/09 00:29:17;;;;;;;28.17;17.30;;;10.00;99.90;;;;;;5028807;28;20539;-84
2023/12/09 00:31:43;;;;;;;42.45;24.38;;;10.90;99.90;;;;;;5027733;28;20030;-84
2023/12/09 00:34:09;;;;;;;43.83;28.25;;;11.00;99.90;;;;;;5028736;28;20084;-84
2023/12/09 00:36:34;;;;;;;50.33;30.75;;;10.70;99.90;;;;;;5011231;28;20053;-84
2023/12/09 00:39:00;;;;;;;26.33;17.08;;;9.90;99.90;;;;;;5026883;28;20075;-84
2023/12/09 00:41:26;;;;;;;22.70;17.83;;;11.00;99.90;;;;;;5023034;28;20094;-89
2023/12/09 00:43:51;;;;;;;17.48;12.90;;;11.50;99.90;;;;;;5017742;28;20065;-85
2023/12/09 00:46:17;;;;;;;32.45;20.05;;;9.60;99.90;;;;;;5028385;28;20035;-84
2023/12/09 00:48:43;;;;;;;32.33;18.52;;;10.80;99.90;;;;;;5028699;28;20029;-84
2023/12/09 00:51:09;;;;;;;31.00;21.05;;;10.50;99.90;;;;;;5010515;28;20379;-85
2023/12/09 00:53:35;;;;;;;31.25;20.77;;;10.50;99.90;;;;;;5008833;28;20088;-84
2023/12/09 00:56:01;;;;;;;41.05;25.88;;;11.50;99.90;;;;;;5011267;28;20105;-86
2023/12/09 00:58:26;;;;;;;45.40;29.92;;;10.50;99.90;;;;;;5029427;28;20381;-84
2023/12/09 01:00:52;;;;;;;48.20;32.05;;;10.60;99.90;;;;;;5027921;28;20394;-85
2023/12/09 01:03:18;;;;;;;61.05;34.75;;;9.80;99.90;;;;;;5033346;28;20068;-85
2023/12/09 01:05:44;;;;;;;51.53;30.02;;;10.90;99.90;;;;;;5028816;28;20065;-89
2023/12/09 01:08:09;;;;;;;53.00;34.22;;;10.60;99.90;;;;;;5030620;28;20112;-89
2023/12/09 01:10:35;;;;;;;63.92;37.25;;;11.50;99.90;;;;;;5040858;28;20183;-87
2023/12/09 01:13:00;;;;;;;54.55;33.92;;;11.40;99.90;;;;;;5029180;28;20029;-89
2023/12/09 01:15:26;;;;;;;67.10;38.33;;;11.10;99.90;;;;;;5028187;28;20021;-88
2023/12/09 01:17:52;;;;;;;59.13;35.47;;;;;;;;;;5028555;28;20033;-88
2023/12/09 01:20:18;;;;;;;64.75;33.50;;;10.80;99.90;;;;;;5032672;28;20032;-88
2023/12/09 01:22:44;;;;;;;62.00;33.45;;;10.70;99.90;;;;;;5031952;28;20025;-90
2023/12/09 01:25:10;;;;;;;35.88;26.05;;;10.80;99.90;;;;;;5031414;28;20519;-89
2023/12/09 01:27:35;;;;;;;31.63;19.67;;;11.40;99.90;;;;;;5031153;28;20033;-87
2023/12/09 01:30:02;;;;;;;24.15;14.57;;;10.90;99.90;;;;;;5032565;28;20028;-88
2023/12/09 01:32:27;;;;;;;13.60;4.28;;;10.90;99.90;;;;;;5004976;28;20033;-89
2023/12/09 01:34:53;;;;;;;12.20;5.55;;;10.00;99.90;;;;;;5019983;28;20075;-88
2023/12/09 01:37:18;;;;;;;22.17;10.18;;;10.20;99.90;;;;;;5016663;28;20033;-88
2023/12/09 01:39:44;;;;;;;15.90;8.82;;;11.20;99.90;;;;;;5038481;28;20482;-87
2023/12/09 01:42:09;;;;;;;21.15;9.63;;;11.00;99.90;;;;;;5013375;28;20038;-87
2023/12/09 01:44:35;;;;;;;16.50;9.90;;;10.80;99.90;;;;;;5038791;28;20029;-86
2023/12/09 01:47:01;;;;;;;15.95;5.88;;;11.20;99.90;;;;;;5031810;28;20025;-83
2023/12/09 01:49:27;;;;;;;11.30;4.40;;;11.00;99.90;;;;;;5031069;28;20030;-83
2023/12/09 01:51:54;;;;;;;17.08;6.30;;;11.60;99.90;;;;;;5030826;28;20017;-83
2023/12/09 01:54:20;;;;;;;14.15;4.70;;;11.20;99.90;;;;;;5044742;28;20028;-85
2023/12/09 01:56:46;;;;;;;19.23;7.20;;;11.10;99.90;;;;;;5046956;28;20022;-86
2023/12/09 01:59:12;;;;;;;22.30;10.05;;;11.70;99.90;;;;;;5051216;28;20508;-87
2023/12/09 02:01:37;;;;;;;14.10;5.57;;;11.10;99.90;;;;;;5043271;28;20095;-83
2023/12/09 02:04:04;;;;;;;12.55;4.78;;;11.70;99.90;;;;;;5024163;28;20518;-84
2023/12/09 02:06:30;;;;;;;18.27;7.32;;;11.10;99.90;;;;;;5032254;28;20022;-86
2023/12/09 02:08:56;;;;;;;12.05;4.63;;;11.20;99.90;;;;;;5031197;28;20104;-87
2023/12/09 02:11:42;;;;;;;19.58;8.15;;;11.20;99.90;;;;;;5031259;28;20584;-84
2023/12/09 02:14:14;;;;;;;16.52;5.88;;;11.20;99.90;;;;;;5031731;28;20037;-84
2023/12/09 02:16:48;;;;;;;11.15;4.20;;;11.70;99.90;;;;;;5031329;28;20017;-84
2023/12/09 02:19:14;;;;;;;22.65;6.43;;;11.20;99.90;;;;;;5029108;28;20029;-84
2023/12/09 02:21:59;;;;;;;14.90;5.40;;;12.40;99.90;;;;;;5032387;28;20396;-84
2023/12/09 02:24:26;;;;;;;11.85;3.28;;;12.20;99.90;;;;;;5032143;28;20037;-84
2023/12/09 02:26:53;;;;;;;14.88;5.35;;;11.70;99.90;;;;;;5028405;28;20097;-85
2023/12/09 02:29:21;;;;;;;14.00;4.88;;;11.30;99.90;;;;;;4994932;28;20477;-85
2023/12/09 02:31:54;;;;;;;22.33;5.20;;;11.30;99.90;;;;;;5018806;28;20393;-85
2023/12/09 02:34:21;;;;;;;10.82;3.50;;;11.30;99.90;;;;;;5031049;28;20045;-85
2023/12/09 02:36:47;;;;;;;12.75;4.43;;;12.50;99.90;;;;;;5015822;28;20513;-84
2023/12/09 02:39:17;;;;;;;14.85;5.25;;;12.20;99.90;;;;;;5031655;28;20104;-85
2023/12/09 02:41:44;;;;;;;11.65;4.22;;;11.30;99.90;;;;;;5013646;28;20032;-85
2023/12/09 02:44:09;;;;;;;14.27;4.47;;;11.30;99.90;;;;;;5031824;28;20444;-85
2023/12/09 02:46:36;;;;;;;12.55;3.83;;;11.30;99.90;;;;;;5032745;28;20038;-89
2023/12/09 02:49:02;;;;;;;12.07;4.45;;;;;;;;;;5032480;28;20028;-85
2023/12/09 02:51:28;;;;;;;34.58;23.23;;;11.30;99.90;;;;;;5017819;28;20109;-84
2023/12/09 02:53:54;;;;;;;37.50;21.33;;;11.40;99.90;;;;;;5029487;28;20029;-84
2023/12/09 02:56:20;;;;;;;59.30;35.53;;;12.20;99.90;;;;;;5031878;28;20025;-84
2023/12/09 02:58:46;;;;;;;19.05;6.30;;;12.40;99.90;;;;;;5041005;28;20038;-84
2023/12/09 03:01:11;;;;;;;14.70;4.65;;;11.40;99.90;;;;;;5031970;28;20021;-84
2023/12/09 03:03:38;;;;;;;14.18;3.47;;;11.90;99.90;;;;;;5032362;28;20083;-84
2023/12/09 03:06:04;;;;;;;14.35;3.50;;;11.50;99.90;;;;;;5020217;28;20491;-82
2023/12/09 03:08:29;;;;;;;15.18;3.63;;;11.50;99.90;;;;;;5011888;28;20028;-85
2023/12/09 03:10:55;;;;;;;15.85;5.75;;;12.30;99.90;;;;;;5028121;28;20029;-90
2023/12/09 03:13:20;;;;;;;22.25;6.25;;;11.50;99.90;;;;;;5029747;28;20041;-90
2023/12/09 03:15:46;;;;;;;17.92;4.75;;;11.60;99.90;;;;;;5012383;28;20022;-88
2023/12/09 03:18:11;;;;;;;14.70;3.67;;;11.50;99.90;;;;;;5030456;28;20051;-87
2023/12/09 03:20:37;;;;;;;9.88;2.30;;;12.00;99.90;;;;;;5031613;28;20025;-87
2023/12/09 03:23:03;;;;;;;10.27;2.30;;;11.60;99.90;;;;;;5030496;28;20500;-88
2023/12/09 03:25:28;;;;;;;11.77;2.45;;;11.60;99.90;;;;;;5030495;28;20422;-89
2023/12/09 03:27:54;;;;;;;16.25;4.90;;;11.60;99.90;;;;;;5029815;28;20117;-87
2023/12/09 03:30:21;;;;;;;14.25;4.60;;;11.70;99.90;;;;;;5029297;28;20026;-85
2023/12/09 03:32:46;;;;;;;13.60;4.30;;;11.60;99.90;;;;;;5030343;28;20524;-90
2023/12/09 03:35:12;;;;;;;14.50;3.72;;;12.30;99.90;;;;;;5021713;28;20033;-88
2023/12/09 03:37:38;;;;;;;8.57;2.30;;;11.60;99.90;;;;;;5031673;28;20168;-86
2023/12/09 03:40:04;;;;;;;9.63;2.90;;;11.60;99.90;;;;;;5030082;28;20057;-89
2023/12/09 03:42:30;;;;;;;9.50;2.00;;;11.60;99.90;;;;;;5029185;28;20079;-87
2023/12/09 03:44:56;;;;;;;8.93;3.17;;;11.90;99.90;;;;;;5029810;28;20029;-88
2023/12/09 03:47:21;;;;;;;9.95;3.97;;;11.70;99.90;;;;;;5029923;28;20045;-86
2023/12/09 03:49:47;;;;;;;12.55;4.05;;;11.80;99.90;;;;;;5030155;28;20034;-85
2023/12/09 03:52:12;;;;;;;9.55;3.13;;;11.70;99.90;;;;;;5011457;28;20374;-85
2023/12/09 03:54:39;;;;;;;5.07;2.33;;;11.70;99.90;;;;;;5030025;28;20025;-85
2023/12/09 03:57:04;;;;;;;5.93;2.05;;;11.90;99.90;;;;;;5032225;28;20559;-84
2023/12/09 03:59:30;;;;;;;6.45;2.08;;;12.10;99.90;;;;;;5029279;28;20347;-84
2023/12/09 04:01:56;;;;;;;8.57;3.95;;;11.90;99.90;;;;;;5028945;28;20035;-84
2023/12/09 04:04:22;;;;;;;7.13;3.58;;;11.70;99.90;;;;;;5029363;28;20029;-85
2023/12/09 04:06:49;;;;;;;7.40;2.83;;;11.70;99.90;;;;;;5029252;28;20031;-85
2023/12/09 04:09:16;;;;;;;5.82;2.42;;;11.90;99.90;;;;;;5029294;28;20094;-84
2023/12/09 04:11:43;;;;;;;5.60;2.13;;;11.90;99.90;;;;;;5028739;28;20021;-85
2023/12/09 04:14:08;;;;;;;2.92;1.90;;;11.70;99.90;;;;;;5012259;28;20034;-86
2023/12/09 04:16:34;;;;;;;5.35;3.50;;;12.60;99.90;;;;;;5028707;28;20041;-85
2023/12/09 04:19:00;;;;;;;11.82;5.07;;;12.30;99.90;;;;;;5028873;28;20025;-88
2023/12/09 04:21:25;;;;;;;8.10;5.45;;;11.80;99.90;;;;;;5028731;28;20028;-89
2023/12/09 04:23:51;;;;;;;10.63;5.80;;;11.80;99.90;;;;;;5029016;28;20056;-85
2023/12/09 04:26:17;;;;;;;11.02;7.15;;;11.80;99.90;;;;;;5010225;28;20037;-85
2023/12/09 04:28:43;;;;;;;7.90;6.95;;;12.00;99.90;;;;;;5028478;28;20053;-84
2023/12/09 04:31:08;;;;;;;9.35;8.45;;;11.80;99.90;;;;;;5033144;28;20030;-84
2023/12/09 04:33:34;;;;;;;18.33;16.38;;;11.90;99.90;;;;;;5043589;28;20087;-84
2023/12/09 04:35:59;;;;;;;5.82;2.45;;;11.90;99.90;;;;;;5030133;28;20493;-84
2023/12/09 04:38:25;;;;;;;8.48;4.88;;;12.00;99.90;;;;;;5029108;28;20021;-83
2023/12/09 04:40:50;;;;;;;4.47;2.13;;;11.90;99.90;;;;;;5011128;28;20033;-83
2023/12/09 04:43:16;;;;;;;4.50;1.58;;;11.90;99.90;;;;;;5029562;28;20044;-85
2023/12/09 04:45:42;;;;;;;1.15;0.90;;;12.00;99.90;;;;;;5012801;28;20033;-84
2023/12/09 04:48:07;;;;;;;1.15;0.75;;;12.00;99.90;;;;;;5028773;28;20030;-85
2023/12/09 04:50:33;;;;;;;4.60;1.02;;;12.00;99.90;;;;;;5029587;28;20315;-85
2023/12/09 04:52:58;;;;;;;6.70;1.50;;;12.00;99.90;;;;;;5028466;28;20068;-86
2023/12/09 04:55:24;;;;;;;5.85;2.80;;;12.10;99.90;;;;;;5031592;28;20030;-84
2023/12/09 04:57:49;;;;;;;3.58;2.15;;;12.20;99.90;;;;;;5042861;28;20064;-83
2023/12/09 05:00:15;;;;;;;1.83;1.35;;;12.20;99.90;;;;;;5045692;28;20401;-83
2023/12/09 05:02:41;;;;;;;4.70;1.20;;;12.00;99.90;;;;;;5050173;28;20100;-84
2023/12/09 05:05:07;;;;;;;1.25;1.15;;;12.00;99.90;;;;;;5051117;28;20039;-84
2023/12/09 05:07:32;;;;;;;7.60;3.47;;;12.10;99.90;;;;;;5045025;28;20029;-84
2023/12/09 05:09:58;;;;;;;6.95;2.97;;;12.50;99.90;;;;;;5031771;28;20033;-84
2023/12/09 05:12:23;;;;;;;4.25;2.75;;;12.30;99.90;;;;;;5013758;28;20031;-84
2023/12/09 05:14:49;;;;;;;5.03;2.85;;;12.20;99.90;;;;;;5030419;28;20029;-86
2023/12/09 05:17:16;;;;;;;0.95;0.95;;;12.20;99.90;;;;;;5021741;28;20076;-86
2023/12/09 05:19:42;;;;;;;1.65;1.38;;;12.50;99.90;;;;;;5024871;28;20117;-87
2023/12/09 05:22:08;;;;;;;1.63;1.05;;;12.10;99.90;;;;;;5033454;28;20446;-87
2023/12/09 05:24:34;;;;;;;6.22;2.55;;;12.30;99.90;;;;;;5014688;28;20084;-85
2023/12/09 05:27:00;;;;;;;4.57;2.35;;;12.30;99.90;;;;;;5015039;28;20022;-86
2023/12/09 05:29:25;;;;;;;5.97;3.00;;;12.40;99.90;;;;;;5032300;28;20052;-86
2023/12/09 05:31:51;;;;;;;6.05;2.55;;;12.40;99.90;;;;;;5032085;28;20005;-86
2023/12/09 05:34:17;;;;;;;1.45;0.90;;;12.50;99.90;;;;;;5031883;28;20048;-85
2023/12/09 05:36:42;;;;;;;4.68;4.22;;;12.70;99.90;;;;;;5043121;28;20021;-85
2023/12/09 05:39:08;;;;;;;19.05;16.63;;;12.80;99.90;;;;;;5032265;28;20120;-85
2023/12/09 05:41:33;;;;;;;27.38;21.65;;;12.60;99.90;;;;;;5031361;28;20037;-84
2023/12/09 05:43:59;;;;;;;17.75;13.80;;;12.60;99.90;;;;;;5031513;28;20026;-84
2023/12/09 05:46:25;;;;;;;16.10;14.35;;;12.80;99.90;;;;;;5031319;28;20049;-84
2023/12/09 05:48:50;;;;;;;12.68;10.95;;;12.90;99.90;;;;;;5032220;28;20025;-84
2023/12/09 05:51:16;;;;;;;1.33;1.23;;;12.70;99.90;;;;;;5036173;28;20455;-84
2023/12/09 05:53:42;;;;;;;0.70;0.70;;;12.70;99.90;;;;;;5032186;28;20038;-85
2023/12/09 05:56:10;;;;;;;0.57;0.57;;;13.00;99.90;;;;;;5031454;28;20048;-86
2023/12/09 05:58:35;;;;;;;0.50;0.50;;;12.80;99.90;;;;;;5031382;28;20031;-86
2023/12/09 06:01:01;;;;;;;8.00;6.60;;;12.80;99.90;;;;;;5012444;28;20112;-86
2023/12/09 06:03:26;;;;;;;38.85;28.45;;;12.70;99.90;;;;;;5030246;28;20468;-86
2023/12/09 06:05:52;;;;;;;21.77;17.83;;;12.80;99.90;;;;;;5030901;28;20099;-85
2023/12/09 06:08:17;;;;;;;9.43;8.52;;;12.90;99.90;;;;;;5041582;28;20033;-84
2023/12/09 06:10:43;;;;;;;28.02;23.58;;;12.90;99.90;;;;;;5051908;28;20489;-85
2023/12/09 06:13:09;;;;;;;24.25;21.40;;;12.90;99.90;;;;;;5024334;28;20033;-84
2023/12/09 06:15:34;;;;;;;34.67;26.63;;;13.10;99.90;;;;;;5031047;28;20026;-85
2023/12/09 06:18:00;;;;;;;50.10;34.10;;;13.10;99.90;;;;;;5030281;28;20037;-85
2023/12/09 06:20:25;;;;;;;43.28;30.70;;;13.00;99.90;;;;;;5030747;28;20024;-84
2023/12/09 06:22:52;;;;;;;2.22;1.77;;;13.10;99.90;;;;;;5030675;28;20469;-85
2023/12/09 06:25:17;;;;;;;0.98;0.90;;;13.20;99.90;;;;;;5031277;28;20033;-85
2023/12/09 06:27:43;;;;;;;1.30;0.88;;;13.10;99.90;;;;;;5031202;28;20100;-86
2023/12/09 06:30:09;;;;;;;1.05;0.95;;;13.20;99.90;;;;;;5030548;28;20394;-85
2023/12/09 06:32:35;;;;;;;4.10;2.25;;;13.20;99.90;;;;;;5030120;28;20025;-86
2023/12/09 06:35:01;;;;;;;30.63;23.85;;;13.30;99.90;;;;;;5030270;28;20041;-86
2023/12/09 06:37:26;;;;;;;27.73;21.35;;;13.20;99.90;;;;;;5030526;28;20044;-85
2023/12/09 06:39:52;;;;;;;14.65;12.68;;;13.20;99.90;;;;;;5030253;28;20510;-85
2023/12/09 06:42:18;;;;;;;3.05;2.78;;;;;;;;;;5012289;28;20017;-85
2023/12/09 06:44:43;;;;;;;2.78;2.53;;;13.30;99.90;;;;;;5012240;28;20032;-85
2023/12/09 06:47:12;;;;;;;5.47;4.95;;;13.30;99.90;;;;;;5030101;28;20045;-86
2023/12/09 06:49:38;;;;;;;9.82;5.00;;;13.30;99.90;;;;;;5036960;28;20108;-85
2023/12/09 06:52:04;;;;;;;24.38;20.90;;;13.40;99.90;;;;;;5046286;28;20148;-85
2023/12/09 06:54:30;;;;;;;4.70;1.60;;;13.40;99.90;;;;;;5047057;28;20029;-84
2023/12/09 06:56:56;;;;;;;2.38;1.60;;;13.50;99.90;;;;;;5050210;28;20032;-84
2023/12/09 06:59:22;;;;;;;0.50;0.47;;;13.50;99.90;;;;;;5050280;28;20021;-87
2023/12/09 07:01:49;;;;;;;1.77;0.38;;;13.50;99.90;;;;;;5045952;28;20036;-87
2023/12/09 07:04:18;;;;;;;0.60;0.60;;;13.50;99.90;;;;;;5029200;28;20486;-86
2023/12/09 07:06:44;;;;;;;0.50;0.50;;;13.60;99.90;;;;;;5020089;28;20033;-86
2023/12/09 07:09:09;;;;;;;1.15;1.05;;;13.60;99.90;;;;;;5015008;28;20029;-90
2023/12/09 07:11:36;;;;;;;2.50;1.58;;;13.60;99.90;;;;;;5028265;28;20026;-87
2023/12/09 07:14:01;;;;;;;2.38;1.50;;;13.80;99.90;;;;;;5029198;28;20116;-85
2023/12/09 07:16:27;;;;;;;2.58;1.80;;;13.80;99.90;;;;;;5033290;28;20114;-85
2023/12/09 07:18:58;;;;;;;0.65;0.65;;;13.90;99.90;;;;;;5029362;28;20433;-87
2023/12/09 07:21:25;;;;;;;1.15;0.80;;;;;;;;;;5011558;28;20025;-85
2023/12/09 07:23:51;;;;;;;3.42;0.73;;;13.90;99.90;;;;;;5021658;28;20108;-86
2023/12/09 07:26:18;;;;;;;0.60;0.60;;;13.90;99.90;;;;;;5029765;28;20109;-88
2023/12/09 07:28:44;;;;;;;0.70;0.70;;;13.90;99.90;;;;;;5036375;28;20112;-87
2023/12/09 07:31:10;;;;;;;2.38;1.40;;;14.00;99.90;;;;;;5023065;28;20108;-85
2023/12/09 07:33:36;;;;;;;3.20;1.85;;;14.00;99.90;;;;;;5028848;28;20061;-88
2023/12/09 07:36:02;;;;;;;2.55;1.70;;;14.10;99.90;;;;;;5018658;28;20064;-85
2023/12/09 07:38:27;;;;;;;4.40;1.50;;;14.10;99.90;;;;;;5033107;28;20117;-84
2023/12/09 07:40:53;;;;;;;9.93;0.82;;;14.20;99.90;;;;;;5010978;28;20087;-86
2023/12/09 07:43:19;;;;;;;1.85;1.45;;;14.20;99.90;;;;;;5012357;28;20021;-86
2023/12/09 07:45:45;;;;;;;4.00;3.53;;;14.30;99.90;;;;;;5029553;28;20025;-87
2023/12/09 07:48:10;;;;;;;15.32;12.27;;;14.30;99.90;;;;;;5028880;28;20100;-91
2023/12/09 07:50:36;;;;;;;0.93;0.68;;;14.40;99.90;;;;;;5029425;28;20102;-85
2023/12/09 07:53:02;;;;;;;0.60;0.60;;;14.40;99.90;;;;;;5028779;28;20033;-84
2023/12/09 07:55:28;;;;;;;0.40;0.40;;;14.50;99.90;;;;;;5029055;28;20063;-85
2023/12/09 07:57:55;;;;;;;0.75;0.40;;;14.30;99.90;;;;;;5019529;28;20526;-85
2023/12/09 08:00:20;;;;;;;0.63;0.40;;;14.50;99.90;;;;;;5010372;28;20014;-84
2023/12/09 08:02:46;;;;;;;1.95;0.63;;;14.90;99.90;;;;;;5028784;28;20570;-84
2023/12/09 08:05:12;;;;;;;1.77;0.50;;;14.80;99.90;;;;;;5038863;28;20413;-86
2023/12/09 08:07:38;;;;;;;1.08;0.50;;;14.60;99.90;;;;;;5021279;28;20018;-85
2023/12/09 08:10:04;;;;;;;0.30;0.30;;;17.60;99.90;;;;;;5016943;28;20022;-86
2023/12/09 08:12:31;;;;;;;0.47;0.38;;;14.60;99.90;;;;;;5029128;28;20362;-89
2023/12/09 08:14:57;;;;;;;1.65;0.50;;;14.90;99.90;;;;;;5029036;28;20389;-85
2023/12/09 08:17:22;;;;;;;0.82;0.60;;;14.80;99.90;;;;;;5041219;28;20029;-85
2023/12/09 08:19:48;;;;;;;1.23;0.40;;;15.20;99.90;;;;;;5048953;28;20021;-85
2023/12/09 08:22:13;;;;;;;1.77;0.65;;;14.80;99.90;;;;;;5027794;28;20030;-89
2023/12/09 08:24:40;;;;;;;0.90;0.63;;;14.80;99.90;;;;;;5028848;28;20049;-85
2023/12/09 08:27:06;;;;;;;0.35;0.35;;;15.10;99.90;;;;;;5031671;28;20029;-85
2023/12/09 08:29:32;;;;;;;0.40;0.40;;;15.00;99.90;;;;;;5005151;28;20401;-86
2023/12/09 08:31:57;;;;;;;0.77;0.52;;;15.20;99.90;;;;;;5029581;28;20034;-86
2023/12/09 08:34:23;;;;;;;0.82;0.80;;;15.00;99.90;;;;;;5038746;28;20053;-85
2023/12/09 08:36:49;;;;;;;1.60;0.77;;;15.20;99.90;;;;;;5023381;28;20029;-86
2023/12/09 08:39:16;;;;;;;0.70;0.70;;;15.30;99.90;;;;;;5030195;28;20029;-85
2023/12/09 08:41:43;;;;;;;0.50;0.50;;;15.30;99.90;;;;;;5019734;28;20025;-85
2023/12/09 08:44:09;;;;;;;1.33;0.75;;;15.00;99.90;;;;;;5035148;28;20080;-85
2023/12/09 08:46:34;;;;;;;0.40;0.40;;;14.90;99.90;;;;;;5033684;28;20026;-85
2023/12/09 08:49:00;;;;;;;0.63;0.47;;;15.10;99.90;;;;;;5033138;28;20033;-87
2023/12/09 08:51:26;;;;;;;0.57;0.57;;;15.00;99.90;;;;;;5040275;28;20382;-85
2023/12/09 08:53:51;;;;;;;0.80;0.80;;;14.90;99.90;;;;;;5031462;28;20128;-84
2023/12/09 08:56:17;;;;;;;1.20;0.52;;;15.10;99.90;;;;;;5031920;28;20166;-85
2023/12/09 08:58:42;;;;;;;0.77;0.60;;;15.20;99.90;;;;;;5030568;28;20120;-86
2023/12/09 09:01:08;;;;;;;0.80;0.80;;;15.20;99.90;;;;;;5026775;28;20029;-86
2023/12/09 09:03:34;;;;;;;0.80;0.65;;;15.60;99.90;;;;;;5029163;28;20029;-84
2023/12/09 09:06:00;;;;;;;0.60;0.60;;;15.50;99.90;;;;;;5031969;28;20029;-86
2023/12/09 09:08:25;;;;;;;1.17;0.52;;;15.30;99.90;;;;;;5033344;28;20029;-88
2023/12/09 09:10:51;;;;;;;0.57;0.50;;;15.50;99.90;;;;;;5031099;28;20033;-86
2023/12/09 09:13:16;;;;;;;0.45;0.45;;;15.40;99.90;;;;;;5030823;28;20726;-85
2023/12/09 09:15:42;;;;;;;1.20;0.60;;;15.30;99.90;;;;;;5024500;28;20112;-84
2023/12/09 09:18:08;;;;;;;0.73;0.47;;;15.50;99.90;;;;;;5032638;28;20036;-85
2023/12/09 09:20:33;;;;;;;0.85;0.60;;;15.50;99.90;;;;;;5039969;28;20033;-88
2023/12/09 09:22:59;;;;;;;3.03;0.70;;;15.60;99.90;;;;;;5022677;28;20034;-88
2023/12/09 09:25:25;;;;;;;0.50;0.50;;;15.50;99.90;;;;;;5013021;28;20069;-85
2023/12/09 09:27:51;;;;;;;0.50;0.50;;;15.60;99.90;;;;;;5012341;28;20101;-85
2023/12/09 09:30:19;;;;;;;1.42;0.70;;;15.60;99.90;;;;;;5039628;28;20434;-85
2023/12/09 09:32:46;;;;;;;0.60;0.60;;;15.40;99.90;;;;;;5031929;28;20073;-86
2023/12/09 09:35:11;;;;;;;0.52;0.50;;;15.60;99.90;;;;;;5031949;28;20036;-85
2023/12/09 09:37:37;;;;;;;0.68;0.68;;;15.60;99.90;;;;;;5031851;28;20385;-89
2023/12/09 09:40:04;;;;;;;0.60;0.60;;;15.80;99.90;;;;;;5030949;28;20477;-85
2023/12/09 09:42:34;;;;;;;0.52;0.52;;;15.50;99.90;;;;;;5032020;28;20030;-86
2023/12/09 09:45:12;;;;;;;0.70;0.68;;;15.50;99.90;;;;;;5032748;28;20075;-86
2023/12/09 09:47:37;;;;;;;1.27;0.88;;;15.50;99.90;;;;;;5023954;28;20111;-87
2023/12/09 09:50:06;;;;;;;0.68;0.68;;;15.70;99.90;;;;;;5026452;28;20549;-85
2023/12/09 09:52:35;;;;;;;1.10;0.98;;;15.50;99.90;;;;;;5031540;28;20069;-84
2023/12/09 09:55:02;;;;;;;1.20;1.10;;;15.70;99.90;;;;;;5027129;28;20030;-84
2023/12/09 09:57:27;;;;;;;0.43;0.43;;;15.90;99.90;;;;;;5013571;28;20025;-84
2023/12/09 09:59:56;;;;;;;0.60;0.60;;;15.70;99.90;;;;;;5029305;28;20405;-85
2023/12/09 10:02:22;;;;;;;;;;;15.90;99.90;;;;;;5031581;28;20032;-85
2023/12/09 10:04:48;;;;;;;0.73;0.52;;;15.50;99.90;;;;;;5031431;28;20320;-85
2023/12/09 10:07:14;;;;;;;1.70;0.77;;;15.60;99.90;;;;;;5030850;28;20528;-89
2023/12/09 10:09:40;;;;;;;0.82;0.50;;;15.60;99.90;;;;;;5031239;28;20033;-89
2023/12/09 10:12:06;;;;;;;2.05;0.70;;;15.60;99.90;;;;;;5012832;28;20029;-84
2023/12/09 10:14:32;;;;;;;0.68;0.68;;;15.60;99.90;;;;;;5031306;28;20029;-84
2023/12/09 10:16:57;;;;;;;2.00;0.70;;;15.80;99.90;;;;;;5029644;28;20036;-84
2023/12/09 10:19:24;;;;;;;1.88;0.70;;;;;;;;;;5011321;28;20054;-87
2023/12/09 10:21:49;;;;;;;3.45;0.80;;;15.70;99.90;;;;;;5011307;28;20328;-85
2023/12/09 10:24:15;;;;;;;0.93;0.80;;;15.90;99.90;;;;;;5011059;28;20084;-89
2023/12/09 10:26:41;;;;;;;0.70;0.60;;;15.70;99.90;;;;;;5011107;28;20029;-84
2023/12/09 10:29:07;;;;;;;1.88;1.10;;;15.60;99.90;;;;;;5011029;28;20383;-84
2023/12/09 10:31:35;;;;;;;1.10;0.80;;;15.60;99.90;;;;;;5016927;28;20402;-86
2023/12/09 10:34:02;;;;;;;;;;;15.60;99.90;;;;;;5016469;28;20045;-84
2023/12/09 10:36:29;;;;;;;0.93;0.80;;;15.70;99.90;;;;;;5011497;28;20396;-85
2023/12/09 10:38:56;;;;;;;1.07;0.73;;;15.60;99.90;;;;;;5011022;28;20050;-84
2023/12/09 10:41:23;;;;;;;3.95;0.70;;;15.70;99.90;;;;;;5010901;28;20022;-86
2023/12/09 10:43:48;;;;;;;0.60;0.60;;;15.60;99.90;;;;;;5030648;28;20425;-84
2023/12/09 10:46:14;;;;;;;0.63;0.63;;;15.70;99.90;;;;;;5045657;28;20029;-85
2023/12/09 10:48:43;;;;;;;1.77;0.82;;;15.60;99.90;;;;;;5050390;28;20024;-85
2023/12/09 10:51:08;;;;;;;0.80;0.70;;;15.70;99.90;;;;;;5050006;28;20546;-89
2023/12/09 10:53:34;;;;;;;0.70;0.70;;;15.70;99.90;;;;;;5012115;28;20037;-89
2023/12/09 10:56:00;;;;;;;2.25;1.02;;;15.70;99.90;;;;;;5031136;28;20029;-85
2023/12/09 10:58:27;;;;;;;1.88;0.90;;;15.60;99.90;;;;;;5030051;28;20097;-84
2023/12/09 11:00:56;;;;;;;0.60;0.47;;;15.70;99.90;;;;;;5030242;28;20422;-85
2023/12/09 11:03:23;;;;;;;0.90;0.75;;;15.80;99.90;;;;;;5012143;28;20386;-85
2023/12/09 11:05:51;;;;;;;1.17;0.85;;;15.90;99.90;;;;;;5029141;28;20096;-84
2023/12/09 11:08:17;;;;;;;1.67;0.88;;;15.60;99.90;;;;;;5029419;28;20037;-84
2023/12/09 11:10:45;;;;;;;1.80;0.93;;;;;;;;;;5030103;28;20505;-85
2023/12/09 11:13:11;;;;;;;0.70;0.70;;;15.70;99.90;;;;;;5029239;28;20398;-84
2023/12/09 11:15:37;;;;;;;5.32;1.30;;;14.30;99.90;;;;;;5030469;28;20536;-87
2023/12/09 11:18:08;;;;;;;3.10;0.73;;;15.70;99.90;;;;;;5031147;28;20025;-87
2023/12/09 11:20:40;;;;;;;2.42;0.90;;;15.70;99.90;;;;;;5030007;28;20113;-84
2023/12/09 11:23:10;;;;;;;0.70;0.70;;;15.70;99.90;;;;;;5018543;28;20124;-86
2023/12/09 11:25:42;;;;;;;1.10;0.60;;;15.80;99.90;;;;;;5010109;28;20030;-85
2023/12/09 11:28:10;;;;;;;0.60;0.60;;;15.80;99.90;;;;;;5010106;28;20049;-85
2023/12/09 11:30:38;;;;;;;;;;;15.80;99.90;;;;;;4992804;28;20113;-84
2023/12/09 11:33:04;;;;;;;0.93;0.90;;;15.80;99.90;;;;;;5010781;28;19979;-85
2023/12/09 11:35:32;;;;;;;0.93;0.82;;;15.70;99.90;;;;;;5020637;28;20052;-85
2023/12/09 11:37:59;;;;;;;0.93;0.70;;;15.80;99.90;;;;;;5029610;28;20402;-87
2023/12/09 11:40:28;;;;;;;3.75;0.60;;;16.10;99.90;;;;;;5029638;28;20274;-86
2023/12/09 11:42:54;;;;;;;1.20;0.77;;;15.80;99.90;;;;;;5028130;28;20066;-85
2023/12/09 11:45:21;;;;;;;0.90;0.75;;;15.80;99.90;;;;;;5011340;28;20516;-85
2023/12/09 11:47:47;;;;;;;0.57;0.50;;;15.90;99.90;;;;;;5025082;28;20507;-85
2023/12/09 11:50:16;;;;;;;1.05;0.68;;;15.80;99.90;;;;;;5009539;28;20041;-85
2023/12/09 11:52:44;;;;;;;;;;;15.80;99.90;;;;;;5010032;28;20025;-86
2023/12/09 11:55:10;;;;;;;0.95;0.90;;;15.80;99.90;;;;;;5014107;28;19909;-85
2023/12/09 11:57:39;;;;;;;1.27;0.82;;;15.80;99.90;;;;;;5029369;28;20037;-87
2023/12/09 12:00:06;;;;;;;1.08;0.98;;;15.80;99.90;;;;;;5028822;28;20520;-86
2023/12/09 12:02:35;;;;;;;1.50;0.80;;;15.40;99.90;;;;;;5011621;28;20040;-86
2023/12/09 12:05:00;;;;;;;1.77;1.00;;;15.80;99.90;;;;;;5025744;28;20018;-85
2023/12/09 12:07:26;;;;;;;3.00;1.35;;;15.80;99.90;;;;;;5019143;28;20041;-86
2023/12/09 12:09:52;;;;;;;1.58;1.10;;;15.90;99.90;;;;;;5028907;28;20486;-85
2023/12/09 12:12:19;;;;;;;0.93;0.70;;;15.90;99.90;;;;;;5028809;28;20037;-86
2023/12/09 12:14:46;;;;;;;0.70;0.70;;;15.90;99.90;;;;;;5028411;28;20028;-85
2023/12/09 12:17:11;;;;;;;1.15;0.88;;;15.80;99.90;;;;;;5010793;28;20512;-85
2023/12/09 12:19:39;;;;;;;2.83;0.80;;;15.90;99.90;;;;;;5028309;28;20026;-85
2023/12/09 12:22:05;;;;;;;1.27;1.08;;;15.80;99.90;;;;;;5029880;28;20031;-85
2023/12/09 12:24:43;;;;;;;0.80;0.80;;;15.90;99.90;;;;;;5028868;28;20075;-87
2023/12/09 12:27:09;;;;;;;3.45;0.60;;;15.90;99.90;;;;;;5028967;28;20363;-85
2023/12/09 12:29:38;;;;;;;2.60;0.70;;;16.00;99.90;;;;;;5029339;28;20091;-85
2023/12/09 12:32:05;;;;;;;0.82;0.70;;;15.80;99.90;;;;;;5026786;28;20053;-84
2023/12/09 12:34:31;;;;;;;2.27;0.60;;;16.10;99.90;;;;;;5018516;28;20037;-84
2023/12/09 12:36:57;;;;;;;1.52;0.70;;;15.90;99.90;;;;;;5028787;28;20223;-84
2023/12/09 12:39:23;;;;;;;3.88;1.08;;;15.80;99.90;;;;;;5034427;28;20128;-84